Pearl T — 9HA3698 — position and weather

sailwx.info

Track history (hours):
 
Tides and Currents Weather Stations Pressure Air Temp Water Temp Dewpoint Dewpoint Depression Visibility Wind Speed Wind Dir Waves Ship Positions

Pearl T

Last reported at 2018-Jan-21 11:30 UTC. Time now 2018-Jan-21 12:34 UTC.
Position N 28°38' W 014°50'.

Length 99 m; draft 4.7 m.

Type: Ship. MMSI: 229895000.

Date/timePositionNaut miles runAvg speedWind from/ knotsBaromVisibWave heightAir tempDewpointWater temp
2018-Jan-21 11:30N 28°38' W 014°50'510.3
2018-Jan-21 11:00N 28°35' W 014°54'510.3
2018-Jan-21 10:30N 28°31' W 014°58'510.3
2018-Jan-21 10:00N 28°27' W 015°02'510.2
2018-Jan-21 09:30N 28°23' W 015°06'510.1
2018-Jan-21 09:00N 28°19' W 015°10'510.2
2018-Jan-21 08:30N 28°16' W 015°14'510.5
2018-Jan-21 08:00N 28°12' W 015°18'510.5
2018-Jan-21 07:30N 28°09' W 015°23'1 1.8
2018-Jan-21 06:52N 28°09' W 015°24'0 0.0
2018-Jan-21 06:22N 28°09' W 015°24'0 0.0
2018-Jan-21 05:55N 28°09' W 015°24'0 0.0
2018-Jan-21 05:25N 28°09' W 015°24'0 0.0
2018-Jan-21 04:55N 28°09' W 015°24'0 0.0
2018-Jan-21 04:25N 28°09' W 015°24'0 0.0
2018-Jan-21 03:55N 28°09' W 015°24'0 0.0
2018-Jan-21 03:28N 28°09' W 015°24'0 0.0
2018-Jan-21 02:58N 28°09' W 015°24'0 0.0
2018-Jan-21 02:28N 28°09' W 015°24'0 0.0
2018-Jan-21 01:58N 28°09' W 015°24'0 0.0
2018-Jan-21 01:28N 28°09' W 015°24'0 0.0
2018-Jan-21 00:58N 28°09' W 015°24'0 0.0
2018-Jan-21 00:30N 28°09' W 015°24'0 0.7
2018-Jan-21 00:00N 28°09' W 015°24'2 4.8
2018-Jan-20 23:31N 28°08' W 015°22'3 5.3
2018-Jan-20 23:00N 28°05' W 015°20'5 9.6
2018-Jan-20 22:30N 28°01' W 015°18'5 9.6
2018-Jan-20 22:00N 27°56' W 015°18'5 9.6
2018-Jan-20 21:30N 27°52' W 015°19'5 9.1
2018-Jan-20 20:59N 27°47' W 015°20'  
Track history (hours):
 
Tides and Currents Weather Stations Pressure Air Temp Water Temp Dewpoint Dewpoint Depression Visibility Wind Speed Wind Dir Waves Ship Positions

Pearl T

Last reported at 2018-Jan-21 11:30 UTC. Time now 2018-Jan-21 12:34 UTC.
Position N 28°38' W 014°50'.

Length 99 m; draft 4.7 m.

Type: Ship. MMSI: 229895000.

Date/timePositionNaut miles runAvg speedWind from/ knotsBaromVisibWave heightAir tempDewpointWater temp
2018-Jan-21 11:30N 28°38' W 014°50'510.3
2018-Jan-21 11:00N 28°35' W 014°54'510.3
2018-Jan-21 10:30N 28°31' W 014°58'510.3
2018-Jan-21 10:00N 28°27' W 015°02'510.2
2018-Jan-21 09:30N 28°23' W 015°06'510.1
2018-Jan-21 09:00N 28°19' W 015°10'510.2
2018-Jan-21 08:30N 28°16' W 015°14'510.5
2018-Jan-21 08:00N 28°12' W 015°18'510.5
2018-Jan-21 07:30N 28°09' W 015°23'1 1.8
2018-Jan-21 06:52N 28°09' W 015°24'0 0.0
2018-Jan-21 06:22N 28°09' W 015°24'0 0.0
2018-Jan-21 05:55N 28°09' W 015°24'0 0.0
2018-Jan-21 05:25N 28°09' W 015°24'0 0.0
2018-Jan-21 04:55N 28°09' W 015°24'0 0.0
2018-Jan-21 04:25N 28°09' W 015°24'0 0.0
2018-Jan-21 03:55N 28°09' W 015°24'0 0.0
2018-Jan-21 03:28N 28°09' W 015°24'0 0.0
2018-Jan-21 02:58N 28°09' W 015°24'0 0.0
2018-Jan-21 02:28N 28°09' W 015°24'0 0.0
2018-Jan-21 01:58N 28°09' W 015°24'0 0.0
2018-Jan-21 01:28N 28°09' W 015°24'0 0.0
2018-Jan-21 00:58N 28°09' W 015°24'0 0.0
2018-Jan-21 00:30N 28°09' W 015°24'0 0.7
2018-Jan-21 00:00N 28°09' W 015°24'2 4.8
2018-Jan-20 23:31N 28°08' W 015°22'3 5.3
2018-Jan-20 23:00N 28°05' W 015°20'5 9.6
2018-Jan-20 22:30N 28°01' W 015°18'5 9.6
2018-Jan-20 22:00N 27°56' W 015°18'5 9.6
2018-Jan-20 21:30N 27°52' W 015°19'5 9.1
2018-Jan-20 20:59N 27°47' W 015°20'  

Dump ship's entire track history